Time;durP1;ratioP1;P1;durP2;ratioP2;P2;SDS_P1;SDS_P2;PMS_P1;PMS_P2;Temp;Humidity;BMP_temperature;BMP_pressure;BME280_temperature;BME280_humidity;BME280_pressure;Samples;Min_cycle;Max_cycle;Signal;HPM_P1;HPM_P2
2024/02/01 00:01:14;;;;;;;33.17;12.75;;;;;;;1.62;96.35;99146.72;5008303;28;20045;-53
2024/02/01 00:03:41;;;;;;;30.75;12.32;;;;;;;1.61;96.77;99139.06;4988036;28;20034;-53
2024/02/01 00:06:07;;;;;;;33.97;13.30;;;;;;;1.56;96.40;99126.28;5006705;28;20050;-50
2024/02/01 00:08:32;;;;;;;33.25;12.52;;;;;;;1.63;96.48;99134.75;4990636;28;20433;-51
2024/02/01 00:10:58;;;;;;;28.90;11.90;;;;;;;1.54;96.21;99107.50;5007929;28;20041;-53
2024/02/01 00:13:24;;;;;;;27.55;12.00;;;;;;;1.73;96.07;99131.28;4990898;28;20042;-49
2024/02/01 00:15:51;;;;;;;31.50;12.95;;;;;;;1.47;95.95;99095.59;5005110;28;20048;-50
2024/02/01 00:18:17;;;;;;;23.80;10.23;;;;;;;1.64;96.15;99119.38;5007024;28;20425;-50
2024/02/01 00:20:43;;;;;;;31.30;12.10;;;;;;;1.64;96.68;99115.97;4974968;28;20425;-52
2024/02/01 00:23:09;;;;;;;30.13;12.38;;;;;;;1.67;96.94;99113.41;4971045;28;20120;-50
2024/02/01 00:25:35;;;;;;;29.50;11.07;;;;;;;1.63;97.23;99119.38;5000387;28;20044;-54
2024/02/01 00:28:01;;;;;;;30.20;10.38;;;;;;;1.57;97.50;99109.22;4990453;28;20433;-53
2024/02/01 00:30:27;;;;;;;28.30;11.63;;;;;;;1.44;98.04;99074.31;4980502;28;20042;-51
2024/02/01 00:32:54;;;;;;;28.40;10.98;;;;;;;1.67;98.48;99106.53;4968374;28;20514;-49
2024/02/01 00:35:19;;;;;;;30.27;12.73;;;;;;;1.67;98.13;99093.72;4994170;28;20116;-49
2024/02/01 00:37:45;;;;;;;24.33;9.85;;;;;;;1.69;98.22;99096.28;4987858;28;20509;-53
2024/02/01 00:40:11;;;;;;;23.20;10.13;;;;;;;1.67;98.31;99096.28;4987107;28;20045;-49
2024/02/01 00:42:37;;;;;;;31.05;11.73;;;;;;;1.74;98.50;99091.97;4988526;28;20045;-57
2024/02/01 00:45:04;;;;;;;26.63;11.32;;;;;;;1.72;98.56;99086.03;4995600;28;20038;-48
2024/02/01 00:47:31;;;;;;;23.20;9.82;;;;;;;1.73;98.60;99092.84;5007600;28;20045;-52
2024/02/01 00:49:57;;;;;;;17.42;8.93;;;;;;;1.67;98.67;99070.69;5007965;28;20056;-48
2024/02/01 00:52:23;;;;;;;24.73;10.45;;;;;;;1.69;98.93;99068.09;5007357;28;20676;-53
2024/02/01 00:54:49;;;;;;;22.88;9.45;;;;;;;1.66;98.99;99051.06;4990557;28;20049;-53
2024/02/01 00:57:15;;;;;;;26.08;11.80;;;;;;;1.68;99.13;99033.94;4989783;28;20041;-53
2024/02/01 00:59:41;;;;;;;26.65;9.27;;;;;;;1.65;98.93;99028.88;4973122;28;20049;-52
2024/02/01 01:02:07;;;;;;;27.77;11.57;;;;;;;1.84;99.18;99067.13;5006135;28;20132;-51
2024/02/01 01:04:33;;;;;;;24.60;10.55;;;;;;;1.86;99.22;99050.88;4995437;28;20042;-51
2024/02/01 01:06:58;;;;;;;27.90;11.80;;;;;;;1.98;98.88;99062.72;5004828;28;20092;-49
2024/02/01 01:09:24;;;;;;;27.52;12.40;;;;;;;2.00;98.96;99053.28;5005554;28;20048;-51
2024/02/01 01:11:50;;;;;;;18.77;8.65;;;;;;;1.98;98.20;99053.31;5005223;28;20049;-47
2024/02/01 01:14:16;;;;;;;17.60;8.10;;;;;;;1.88;98.20;99049.16;5005641;28;20580;-48
2024/02/01 01:16:42;;;;;;;25.20;10.73;;;;;;;1.59;98.64;99007.56;5006362;28;20580;-50
2024/02/01 01:19:08;;;;;;;32.67;12.38;;;;;;;1.86;98.74;99040.63;5005293;28;20509;-50
2024/02/01 01:21:34;;;;;;;23.33;9.63;;;;;;;1.89;98.54;99038.00;4989180;28;20041;-49
2024/02/01 01:24:00;;;;;;;32.33;11.70;;;;;;;1.88;98.93;99032.94;4972908;28;20096;-50
2024/02/01 01:26:26;;;;;;;28.42;10.82;;;;;;;1.65;98.86;98989.59;4985329;28;20034;-52
2024/02/01 01:28:51;;;;;;;24.55;9.60;;;;;;;1.86;99.15;99027.81;4985732;28;20842;-48
2024/02/01 01:31:17;;;;;;;26.98;10.68;;;;;;;1.90;99.31;99023.50;4980593;28;20699;-49
2024/02/01 01:33:43;;;;;;;23.00;9.90;;;;;;;1.98;99.28;99016.59;5003931;28;20044;-49
2024/02/01 01:36:09;;;;;;;30.08;11.13;;;;;;;1.97;99.08;99023.44;5006506;28;20037;-52
2024/02/01 01:38:35;;;;;;;25.80;10.07;;;;;;;1.53;99.42;98958.97;5006604;28;20061;-49
2024/02/01 01:41:02;;;;;;;28.30;10.57;;;;;;;1.72;99.59;98991.22;4986475;28;20049;-50
2024/02/01 01:43:28;;;;;;;23.42;9.05;;;;;;;1.94;99.98;99010.63;4996072;28;20119;-49
2024/02/01 01:46:04;;;;;;;27.08;11.27;;;;;;;1.95;100.00;99016.59;4990450;28;20126;-50
2024/02/01 01:48:32;;;;;;;19.08;7.75;;;;;;;1.98;99.88;99011.47;4987565;28;20144;-48
2024/02/01 01:50:59;;;;;;;28.48;11.52;;;;;;;1.96;99.58;99013.19;4987436;28;20747;-48
2024/02/01 01:53:29;;;;;;;28.02;11.85;;;;;;;1.99;100.00;99002.91;5004927;28;20144;-50
2024/02/01 01:55:56;;;;;;;27.30;11.10;;;;;;;2.01;99.56;98991.75;5006330;28;20091;-49
2024/02/01 01:58:22;;;;;;;26.92;10.60;;;;;;;1.98;99.02;98984.13;5005274;28;20041;-53
2024/02/01 02:00:48;;;;;;;31.73;12.23;;;;;;;2.07;99.42;98970.34;5003567;28;20509;-52
2024/02/01 02:03:14;;;;;;;24.65;10.43;;;;;;;1.78;98.99;98936.50;5004859;28;20068;-51
2024/02/01 02:05:40;;;;;;;30.25;10.07;;;;;;;1.91;98.93;98974.78;4988332;28;20073;-49
2024/02/01 02:08:07;;;;;;;29.77;10.60;;;;;;;1.89;99.42;98968.81;4987969;28;20041;-50
2024/02/01 02:10:33;;;;;;;25.50;10.27;;;;;;;1.85;100.00;98966.31;4996121;28;20088;-53
2024/02/01 02:12:59;;;;;;;26.55;10.48;;;;;;;1.83;100.00;98958.66;4985389;28;20569;-53
2024/02/01 02:15:31;;;;;;;25.50;10.65;;;;;;;1.80;100.00;98947.56;4989403;28;20105;-48
2024/02/01 02:17:57;;;;;;;22.67;9.50;;;;;;;1.77;100.00;98940.78;4987130;28;20609;-49
2024/02/01 02:20:25;;;;;;;26.48;9.55;;;;;;;1.53;100.00;98895.78;4989685;28;20054;-55
2024/02/01 02:22:51;;;;;;;21.20;7.78;;;;;;;1.80;100.00;98927.06;4989731;28;20574;-48
2024/02/01 02:25:17;;;;;;;27.08;11.00;;;;;;;1.83;100.00;98930.47;4957055;28;20149;-52
2024/02/01 02:27:44;;;;;;;24.58;10.20;;;;;;;1.58;100.00;98877.78;4982663;28;20045;-48
2024/02/01 02:30:14;;;;;;;26.33;9.80;;;;;;;1.84;100.00;98928.72;4974147;28;20083;-50
2024/02/01 02:32:41;;;;;;;22.23;8.60;;;;;;;1.89;100.00;98912.44;4991147;28;20129;-48
2024/02/01 02:35:13;;;;;;;20.98;7.88;;;;;;;1.82;100.00;98915.97;4999028;28;20061;-48
2024/02/01 02:37:47;;;;;;;29.10;11.00;;;;;;;1.81;100.00;98914.25;4979849;28;20038;-50
2024/02/01 02:40:15;;;;;;;26.30;9.43;;;;;;;1.46;100.00;98867.72;4988973;28;20125;-52
2024/02/01 02:42:42;;;;;;;21.02;9.45;;;;;;;1.69;100.00;98892.19;4990421;28;20061;-52
2024/02/01 02:45:09;;;;;;;22.83;9.35;;;;;;;1.52;100.00;98880.41;4988842;28;20042;-52
2024/02/01 02:47:35;;;;;;;21.00;9.65;;;;;;;1.56;100.00;98893.19;5000234;28;20050;-52
2024/02/01 02:50:02;;;;;;;29.10;9.55;;;;;;;1.64;100.00;98908.47;5007325;28;20095;-49
2024/02/01 02:52:29;;;;;;;21.00;7.20;;;;;;;1.61;100.00;98900.81;4982525;28;20042;-52
2024/02/01 02:54:54;;;;;;;25.42;9.52;;;;;;;1.41;100.00;98854.09;4989004;28;20042;-51
2024/02/01 02:57:20;;;;;;;17.92;6.95;;;;;;;1.63;100.00;98892.25;4978131;28;20388;-52
2024/02/01 02:59:47;;;;;;;23.85;9.00;;;;;;;1.69;100.00;98881.09;4944591;28;20053;-48
2024/02/01 03:02:13;;;;;;;15.20;6.57;;;;;;;1.67;100.00;98877.72;4994385;28;20041;-46
2024/02/01 03:04:39;;;;;;;22.73;9.60;;;;;;;1.54;100.00;98853.94;5006296;28;20100;-52
2024/02/01 03:07:08;;;;;;;27.10;10.30;;;;;;;1.75;100.00;98869.91;5000124;28;20645;-52
2024/02/01 03:09:37;;;;;;;24.02;9.73;;;;;;;1.55;100.00;98834.28;5004401;28;20049;-50
2024/02/01 03:12:09;;;;;;;26.95;9.85;;;;;;;1.74;100.00;98861.38;4988266;28;20049;-52
2024/02/01 03:14:42;;;;;;;21.17;8.95;;;;;;;1.74;100.00;98853.69;5001261;28;20521;-54
2024/02/01 03:17:11;;;;;;;17.35;7.97;;;;;;;1.76;100.00;98846.84;5009007;28;20042;-53
2024/02/01 03:19:39;;;;;;;14.65;5.72;;;;;;;1.69;100.00;98842.66;5009317;28;20433;-51
2024/02/01 03:22:05;;;;;;;23.83;10.02;;;;;;;1.72;100.00;98840.06;4986805;28;20049;-53
2024/02/01 03:24:34;;;;;;;17.33;7.05;;;;;;;1.77;100.00;98840.00;5003973;28;20042;-53
2024/02/01 03:27:11;;;;;;;22.10;9.10;;;;;;;1.56;100.00;98806.13;4971312;28;20181;-53
2024/02/01 03:29:37;;;;;;;21.00;8.60;;;;;;;1.70;100.00;98821.31;4988224;28;20395;-55
2024/02/01 03:32:05;;;;;;;15.15;6.60;;;;;;;1.71;100.00;98825.56;4981128;28;20115;-49
2024/02/01 03:34:34;;;;;;;17.05;7.65;;;;;;;1.68;100.00;98816.19;4997501;28;20521;-53
2024/02/01 03:37:01;;;;;;;16.08;6.20;;;;;;;1.69;100.00;98806.78;5012632;28;20360;-51
2024/02/01 03:39:29;;;;;;;17.08;6.45;;;;;;;1.51;100.00;98776.31;4994533;28;20141;-51
2024/02/01 03:41:57;;;;;;;14.47;6.67;;;;;;;1.70;100.00;98806.78;4998235;28;20033;-48
2024/02/01 03:44:24;;;;;;;17.75;7.40;;;;;;;1.70;100.00;98813.63;4997572;28;20037;-50
2024/02/01 03:46:57;;;;;;;22.90;9.43;;;;;;;1.28;100.00;98735.59;4998603;28;20042;-52
2024/02/01 03:49:24;;;;;;;18.85;7.38;;;;;;;1.70;100.00;98806.78;4993688;28;20042;-47
2024/02/01 03:51:50;;;;;;;18.23;8.43;;;;;;;1.71;100.00;98794.81;4998089;28;20038;-47
2024/02/01 03:54:16;;;;;;;17.58;7.60;;;;;;;1.72;100.00;98790.53;4997724;28;20046;-51
2024/02/01 03:56:42;;;;;;;23.50;8.38;;;;;;;1.74;100.00;98781.94;4982523;28;20042;-46
2024/02/01 03:59:09;;;;;;;14.10;6.80;;;;;;;1.76;100.00;98782.78;4979510;28;20044;-48
2024/02/01 04:01:37;;;;;;;22.85;8.13;;;;;;;1.71;100.00;98784.56;5001030;28;20049;-47
2024/02/01 04:04:05;;;;;;;26.10;8.27;;;;;;;1.81;100.00;98782.72;4981060;28;20375;-51
2024/02/01 04:06:35;;;;;;;20.98;9.45;;;;;;;1.90;100.00;98780.03;4988689;28;20038;-47
2024/02/01 04:09:01;;;;;;;23.17;10.07;;;;;;;1.88;100.00;98774.94;4999229;28;20049;-48
2024/02/01 04:11:30;;;;;;;22.83;8.93;;;;;;;1.92;100.00;98762.91;4997720;28;20035;-47
2024/02/01 04:13:57;;;;;;;16.98;8.30;;;;;;;1.89;100.00;98768.06;4998564;28;20041;-47
2024/02/01 04:16:23;;;;;;;19.17;7.22;;;;;;;1.92;100.00;98768.91;4978525;28;20053;-48
2024/02/01 04:18:51;;;;;;;18.63;7.80;;;;;;;1.96;100.00;98757.72;4999204;28;20091;-48
2024/02/01 04:21:17;;;;;;;26.67;9.30;;;;;;;1.71;100.00;98725.66;4994072;28;20137;-54
2024/02/01 04:23:43;;;;;;;12.57;4.97;;;;;;;1.91;100.00;98756.09;4986739;28;20128;-48
2024/02/01 04:26:15;;;;;;;15.85;5.07;;;;;;;1.70;100.00;98732.47;4974018;28;20074;-50
2024/02/01 04:28:43;;;;;;;18.25;7.53;;;;;;;1.53;100.00;98700.28;4989650;28;20042;-48
2024/02/01 04:31:09;;;;;;;10.52;4.80;;;;;;;1.85;100.00;98754.47;4996133;28;20038;-52
2024/02/01 04:33:40;;;;;;;22.98;10.18;;;;;;;1.88;100.00;98757.00;4993509;28;20041;-47
2024/02/01 04:36:07;;;;;;;20.35;9.02;;;;;;;1.88;100.00;98761.28;4959665;28;20048;-52
2024/02/01 04:38:33;;;;;;;24.02;8.85;;;;;;;1.85;100.00;98751.91;4993058;28;20042;-53
2024/02/01 04:40:59;;;;;;;29.75;10.63;;;;;;;1.85;100.00;98735.69;4971938;28;20045;-48
2024/02/01 04:43:25;;;;;;;21.90;9.00;;;;;;;1.89;100.00;98745.00;4997244;28;20057;-53
2024/02/01 04:45:51;;;;;;;28.95;9.75;;;;;;;1.88;100.00;98744.19;4979053;28;20038;-50
2024/02/01 04:48:17;;;;;;;28.52;10.95;;;;;;;1.84;100.00;98736.53;4995038;28;20411;-55
2024/02/01 04:50:43;;;;;;;22.05;8.95;;;;;;;1.91;100.00;98741.56;5004536;28;20585;-49
2024/02/01 04:53:09;;;;;;;18.25;6.50;;;;;;;1.89;100.00;98739.88;4986403;28;20133;-50
2024/02/01 04:55:35;;;;;;;28.33;10.48;;;;;;;1.96;100.00;98736.38;4954236;28;20457;-52
2024/02/01 04:58:01;;;;;;;24.83;10.60;;;;;;;1.98;100.00;98740.63;4987761;28;20120;-52
2024/02/01 05:00:28;;;;;;;26.17;10.18;;;;;;;1.81;100.00;98700.72;5001601;28;20510;-50
2024/02/01 05:02:54;;;;;;;27.52;10.70;;;;;;;1.99;100.00;98733.78;4989991;28;20042;-52
2024/02/01 05:05:20;;;;;;;29.45;12.00;;;;;;;1.99;100.00;98720.97;4991564;28;20042;-41
2024/02/01 05:07:46;;;;;;;17.02;6.78;;;;;;;2.00;100.00;98720.91;4974691;28;20077;-44
2024/02/01 05:10:13;;;;;;;20.13;7.88;;;;;;;1.98;100.00;98720.13;4986094;28;20079;-43
2024/02/01 05:12:39;;;;;;;27.63;10.32;;;;;;;1.92;100.00;98707.41;4988087;28;20056;-42
2024/02/01 05:15:09;;;;;;;33.13;12.35;;;;;;;1.97;100.00;98707.31;4991416;28;20084;-42
2024/02/01 05:17:35;;;;;;;;;;;;;;;1.95;100.00;98709.03;4986483;28;20086;-45
2024/02/01 05:20:08;;;;;;;21.70;8.07;;;;;;;1.88;100.00;98705.75;4987080;28;19914;-45
2024/02/01 05:22:38;;;;;;;26.23;10.93;;;;;;;1.76;100.00;98680.31;4964924;28;20064;-43
2024/02/01 05:25:19;;;;;;;34.47;11.18;;;;;;;1.95;100.00;98701.34;4973501;28;20042;-42
2024/02/01 05:27:50;;;;;;;30.15;10.13;;;;;;;2.01;100.00;98699.56;4989660;28;20045;-43
2024/02/01 05:30:21;;;;;;;17.42;7.30;;;;;;;2.03;100.00;98699.53;5003764;28;20048;-43
2024/02/01 05:32:53;;;;;;;31.38;12.32;;;;;;;1.97;100.00;98699.63;5001580;28;20046;-46
2024/02/01 05:35:26;;;;;;;24.55;9.48;;;;;;;1.98;100.00;98693.63;4995179;28;20033;-45
2024/02/01 05:37:54;;;;;;;18.92;6.88;;;;;;;1.87;100.00;98682.69;4997857;28;20066;-42
2024/02/01 05:40:22;;;;;;;27.65;10.57;;;;;;;1.92;100.00;98692.00;5000933;28;20042;-43
2024/02/01 05:42:51;;;;;;;32.78;12.00;;;;;;;1.78;100.00;98663.19;4993285;28;20049;-48
2024/02/01 05:45:17;;;;;;;25.80;9.52;;;;;;;1.88;100.00;98674.16;4977705;28;20088;-44
2024/02/01 05:47:43;;;;;;;25.67;9.48;;;;;;;1.85;100.00;98669.06;4970244;28;20045;-42
2024/02/01 05:50:13;;;;;;;38.67;12.80;;;;;;;1.79;100.00;98648.66;4985643;28;20038;-44
2024/02/01 05:52:39;;;;;;;40.90;12.02;;;;;;;1.66;100.00;98619.84;4971386;28;20041;-51
2024/02/01 05:55:06;;;;;;;32.15;10.55;;;;;;;1.91;100.00;98669.81;4976762;28;20042;-49
2024/02/01 05:57:33;;;;;;;36.70;12.07;;;;;;;1.77;100.00;98645.28;4993787;28;20042;-50
2024/02/01 06:00:00;;;;;;;28.92;9.75;;;;;;;1.95;100.00;98668.03;4994854;28;20053;-50
2024/02/01 06:02:27;;;;;;;25.42;8.88;;;;;;;1.88;100.00;98659.63;4996492;28;20061;-52
2024/02/01 06:04:53;;;;;;;45.60;12.30;;;;;;;1.89;100.00;98658.72;4976245;28;20502;-51
2024/02/01 06:07:19;;;;;;;42.75;12.00;;;;;;;1.91;100.00;98654.44;4995168;28;20065;-50
2024/02/01 06:09:45;;;;;;;44.88;13.43;;;;;;;1.57;100.00;98584.94;4995859;28;20095;-54
2024/02/01 06:12:11;;;;;;;38.67;12.55;;;;;;;1.92;100.00;98638.19;4977508;28;20042;-51
2024/02/01 06:14:37;;;;;;;41.72;13.57;;;;;;;1.98;100.00;98643.22;4997090;28;20065;-48
2024/02/01 06:17:03;;;;;;;42.55;12.93;;;;;;;2.05;100.00;98642.22;4998902;28;20050;-50
2024/02/01 06:19:30;;;;;;;37.65;11.32;;;;;;;2.04;100.00;98650.78;4986898;28;20056;-49
2024/02/01 06:21:56;;;;;;;30.27;10.52;;;;;;;1.94;100.00;98641.56;4990398;28;20046;-53
2024/02/01 06:24:22;;;;;;;46.03;13.10;;;;;;;1.70;100.00;98606.94;4976020;28;20046;-53
2024/02/01 06:26:48;;;;;;;42.83;12.82;;;;;;;1.96;100.00;98639.84;4991834;28;20506;-51
2024/02/01 06:29:15;;;;;;;45.38;12.65;;;;;;;1.98;100.00;98640.66;4985317;28;20092;-54
2024/02/01 06:31:40;;;;;;;40.70;14.15;;;;;;;1.68;100.00;98598.44;5000098;28;20048;-51
2024/02/01 06:34:08;;;;;;;39.45;11.95;;;;;;;1.99;100.00;98638.94;4977456;28;20522;-52
2024/02/01 06:36:38;;;;;;;42.25;12.07;;;;;;;1.96;100.00;98621.91;4987950;28;20141;-51
2024/02/01 06:41:47;;;;;;;45.00;12.60;;;;;;;2.03;100.00;98625.19;4988763;28;20049;-51
2024/02/01 06:44:26;;;;;;;27.67;10.00;;;;;;;1.78;100.00;98591.44;4980887;28;21544;-47
2024/02/01 06:55:05;;;;;;;27.25;8.60;;;;;;;2.00;100.00;98615.84;4980228;28;20283;-48
2024/02/01 06:57:47;;;;;;;22.23;8.48;;;;;;;1.93;100.00;98595.47;4993640;28;20097;-44
2024/02/01 07:03:04;;;;;;;21.30;8.57;;;;;;;2.02;100.00;98598.72;4995441;28;20039;-50
2024/02/01 07:05:58;;;;;;;34.60;11.77;;;;;;;2.07;100.00;98589.22;4983916;28;20825;-47
2024/02/01 07:08:45;;;;;;;40.08;13.32;;;;;;;2.12;100.00;98595.13;5001978;28;20486;-45
2024/02/01 07:13:47;;;;;;;31.98;10.18;;;;;;;2.12;100.00;98586.59;4979812;28;20088;-44
2024/02/01 07:16:21;;;;;;;19.55;7.43;;;;;;;2.13;100.00;98588.28;4995559;28;20033;-45
2024/02/01 07:19:09;;;;;;;30.70;9.00;;;;;;;2.05;100.00;98583.28;4967198;28;20044;-46
2024/02/01 07:21:59;;;;;;;37.35;10.68;;;;;;;1.96;100.00;98570.63;4994232;28;20078;-46
2024/02/01 07:24:38;;;;;;;26.73;9.25;;;;;;;2.09;100.00;98579.78;4966274;28;20042;-46
2024/02/01 08:00:17;;;;;;;26.58;8.70;;;;;;;2.35;100.00;98535.72;4995196;28;20193;-45
2024/02/01 08:02:52;;;;;;;29.98;10.77;;;;;;;2.35;100.00;98535.72;4993326;28;20425;-45
2024/02/01 08:08:05;;;;;;;24.77;9.18;;;;;;;2.40;100.00;98523.66;4979129;28;20545;-44
2024/02/01 08:10:31;;;;;;;21.55;8.02;;;;;;;2.13;100.00;98485.75;4985912;28;20046;-53
2024/02/01 08:13:04;;;;;;;22.38;8.82;;;;;;;2.28;100.00;98510.22;5005790;28;20037;-55
2024/02/01 08:15:31;;;;;;;26.90;8.15;;;;;;;2.27;100.00;98511.09;4995435;28;20065;-49
2024/02/01 08:17:58;;;;;;;22.85;8.82;;;;;;;2.19;100.00;98511.25;4954317;28;20352;-43
2024/02/01 08:20:24;;;;;;;22.63;7.35;;;;;;;2.01;100.00;98479.13;4969945;28;20165;-48
2024/02/01 08:22:50;;;;;;;29.95;10.38;;;;;;;2.26;100.00;98504.28;4977832;28;20132;-48
2024/02/01 08:25:16;;;;;;;15.52;6.43;;;;;;;2.36;100.00;98506.63;4959076;28;20042;-49
2024/02/01 08:27:55;;;;;;;25.63;9.00;;;;;;;2.18;100.00;98471.09;4996628;28;20152;-57
2024/02/01 08:30:23;;;;;;;34.03;10.43;;;;;;;2.39;100.00;98508.28;4969677;28;20137;-51
2024/02/01 08:32:49;;;;;;;29.35;9.95;;;;;;;2.36;100.00;98500.63;4950640;28;20046;-49
2024/02/01 08:35:16;;;;;;;16.92;7.05;;;;;;;2.39;100.00;98493.75;4998213;28;20041;-50
2024/02/01 08:37:43;;;;;;;16.38;7.60;;;;;;;2.24;100.00;98463.28;4993786;28;20133;-49
2024/02/01 08:40:17;;;;;;;22.10;8.10;;;;;;;2.34;100.00;98485.31;4959293;28;20521;-52
2024/02/01 08:42:49;;;;;;;25.38;9.10;;;;;;;2.22;100.00;98459.06;4998728;28;20046;-47
2024/02/01 08:45:17;;;;;;;24.33;8.93;;;;;;;2.00;100.00;98439.00;4970520;28;20422;-44
2024/02/01 08:47:45;;;;;;;30.55;10.32;;;;;;;2.26;100.00;98471.78;4973046;28;20092;-51
2024/02/01 08:50:11;;;;;;;30.50;10.35;;;;;;;1.92;100.00;98404.16;4996873;28;20514;-50
2024/02/01 08:52:44;;;;;;;25.75;10.23;;;;;;;2.36;100.00;98452.75;4993104;28;20046;-44
2024/02/01 08:55:13;;;;;;;26.80;10.57;;;;;;;2.27;100.00;98434.16;4990869;28;20057;-45
2024/02/01 08:57:41;;;;;;;26.42;9.70;;;;;;;2.37;100.00;98446.75;4997227;28;20069;-48
2024/02/01 09:00:21;;;;;;;23.83;7.95;;;;;;;2.31;100.00;98435.78;4993096;28;20042;-52
2024/02/01 09:03:04;;;;;;;26.08;10.15;;;;;;;2.37;100.00;98438.22;4988556;28;20054;-48
2024/02/01 09:05:31;;;;;;;24.60;7.85;;;;;;;2.38;100.00;98437.34;5004175;28;20430;-47
2024/02/01 09:08:00;;;;;;;27.88;9.70;;;;;;;2.35;100.00;98435.72;4967453;28;20345;-45
2024/02/01 09:10:29;;;;;;;25.70;9.05;;;;;;;2.35;100.00;98424.63;4997261;28;20050;-50
2024/02/01 09:12:55;;;;;;;30.48;10.40;;;;;;;2.42;100.00;98427.00;4998899;28;21681;-47
2024/02/01 09:15:21;;;;;;;30.27;9.02;;;;;;;2.20;100.00;98378.78;5002705;28;20034;-52
2024/02/01 09:17:47;;;;;;;31.15;10.85;;;;;;;2.26;100.00;98381.19;4998594;28;20049;-43
2024/02/01 09:20:21;;;;;;;27.45;10.18;;;;;;;2.47;100.00;98411.50;4955351;28;20038;-43
2024/02/01 09:22:52;;;;;;;15.50;6.15;;;;;;;2.51;100.00;98408.00;4996550;28;20050;-64
2024/02/01 09:25:20;;;;;;;28.15;8.57;;;;;;;2.20;100.00;98353.97;4964032;28;20215;-46
2024/02/01 09:27:51;;;;;;;29.75;10.90;;;;;;;2.55;100.00;98399.38;4978034;28;20067;-49
2024/02/01 09:30:23;;;;;;;14.13;5.38;;;;;;;2.55;100.00;98389.94;4996011;28;20521;-41
2024/02/01 09:32:51;;;;;;;27.63;9.70;;;;;;;2.54;100.00;98389.97;4985620;28;20034;-42
2024/02/01 09:35:18;;;;;;;21.85;7.80;;;;;;;2.52;100.00;98394.28;4977947;28;20080;-43
2024/02/01 09:37:51;;;;;;;28.42;9.35;;;;;;;2.47;100.00;98399.53;4987207;28;20506;-46
2024/02/01 09:40:21;;;;;;;17.30;7.10;;;;;;;2.39;100.00;98391.16;4978052;28;20050;-42
2024/02/01 09:42:49;;;;;;;31.95;11.05;;;;;;;2.36;100.00;98382.69;4995363;28;20057;-53
2024/02/01 09:45:18;;;;;;;26.15;9.30;;;;;;;2.41;100.00;98374.00;4993733;28;20042;-55
2024/02/01 09:47:46;;;;;;;28.60;9.73;;;;;;;2.42;100.00;98369.72;4997623;28;20093;-59
2024/02/01 09:50:20;;;;;;;21.13;7.72;;;;;;;2.41;100.00;98360.34;4991215;28;20128;-43
2024/02/01 09:52:48;;;;;;;27.13;9.32;;;;;;;2.48;100.00;98356.75;4993059;28;20068;-45
2024/02/01 09:55:18;;;;;;;28.50;8.25;;;;;;;2.53;100.00;98358.34;4995556;28;20056;-45
2024/02/01 09:57:49;;;;;;;21.58;7.50;;;;;;;2.55;100.00;98345.50;4991630;28;20066;-45
2024/02/01 10:00:22;;;;;;;30.23;10.10;;;;;;;2.52;100.00;98343.81;4984575;28;20049;-43
2024/02/01 10:02:54;;;;;;;22.10;8.38;;;;;;;2.32;100.00;98310.13;4999696;28;20530;-46
2024/02/01 10:05:28;;;;;;;19.92;8.63;;;;;;;2.55;100.00;98337.78;4974924;28;20053;-45
2024/02/01 10:07:56;;;;;;;26.45;8.98;;;;;;;2.63;100.00;98332.47;4999597;28;20053;-48
2024/02/01 10:10:22;;;;;;;18.65;6.57;;;;;;;2.61;100.00;98324.81;4966834;28;20486;-46
2024/02/01 10:12:52;;;;;;;32.30;11.90;;;;;;;2.65;100.00;98316.16;4988103;28;20045;-45
2024/02/01 10:15:19;;;;;;;;;;;;;;;2.69;100.00;98307.50;4978035;28;20034;-43
2024/02/01 10:17:51;;;;;;;21.08;7.93;;;;;;;2.64;100.00;98305.94;4962113;28;19984;-45
2024/02/01 10:20:33;;;;;;;28.58;9.95;;;;;;;2.66;100.00;98299.06;4966914;28;20042;-48
2024/02/01 10:23:03;;;;;;;28.13;8.95;;;;;;;2.66;100.00;98294.78;4993101;28;20525;-44
2024/02/01 10:25:34;;;;;;;29.50;10.38;;;;;;;2.68;100.00;98280.16;4999345;28;20494;-46
2024/02/01 10:28:09;;;;;;;18.80;7.68;;;;;;;2.67;100.00;98278.47;5000378;28;20048;-42
2024/02/01 10:30:43;;;;;;;29.02;9.18;;;;;;;2.73;100.00;98277.47;4980788;28;20516;-43
2024/02/01 10:33:10;;;;;;;23.42;8.55;;;;;;;2.60;100.00;98238.47;4960711;28;20129;-45
2024/02/01 10:35:37;;;;;;;22.10;9.20;;;;;;;2.84;100.00;98278.88;4964989;28;20041;-44
2024/02/01 10:38:12;;;;;;;19.10;7.10;;;;;;;2.45;100.00;98203.81;4956482;28;20069;-44
2024/02/01 10:41:01;;;;;;;21.55;6.80;;;;;;;2.84;100.00;98248.09;4988731;28;20137;-46
2024/02/01 10:43:34;;;;;;;27.02;9.52;;;;;;;2.89;100.00;98253.94;5001847;28;20038;-44
2024/02/01 10:46:07;;;;;;;23.38;8.88;;;;;;;2.94;100.00;98262.38;4996410;28;20045;-44
2024/02/01 10:48:49;;;;;;;29.30;8.82;;;;;;;2.80;100.00;98227.69;4949828;28;20077;-44
2024/02/01 10:51:16;;;;;;;18.33;7.45;;;;;;;3.06;100.00;98255.22;5002953;28;20076;-43
2024/02/01 10:53:46;;;;;;;10.05;5.78;;;;;;;2.83;99.47;98215.59;4966405;28;20104;-44
2024/02/01 10:56:16;;;;;;;27.40;8.20;;;;;;;2.99;98.55;98247.69;4993206;28;20104;-45
2024/02/01 10:58:47;;;;;;;18.95;7.72;;;;;;;3.03;98.79;98257.88;5001308;28;20048;-44
2024/02/01 11:01:17;;;;;;;15.88;7.10;;;;;;;3.01;97.95;98247.66;4997210;28;20057;-44
2024/02/01 11:03:46;;;;;;;17.85;7.53;;;;;;;2.81;97.35;98217.41;4994475;28;20577;-45
2024/02/01 11:06:12;;;;;;;18.83;7.32;;;;;;;3.01;97.62;98244.25;4990493;28;20065;-44
2024/02/01 11:08:40;;;;;;;22.80;8.07;;;;;;;3.03;97.71;98233.06;4996110;28;20458;-44
2024/02/01 11:11:16;;;;;;;16.38;7.57;;;;;;;3.09;97.20;98237.19;4996263;28;20502;-44
2024/02/01 11:13:48;;;;;;;17.20;6.10;;;;;;;3.00;97.02;98220.28;4997019;28;20038;-44
2024/02/01 11:16:16;;;;;;;22.83;8.95;;;;;;;3.03;96.72;98209.97;5001323;28;20061;-43
2024/02/01 11:18:50;;;;;;;21.00;8.45;;;;;;;3.06;96.71;98209.00;5003774;28;20045;-44
2024/02/01 11:21:28;;;;;;;22.00;8.57;;;;;;;2.78;96.87;98144.78;4996458;28;20191;-45
2024/02/01 11:24:03;;;;;;;15.40;6.50;;;;;;;2.90;95.87;98168.38;4973129;28;20061;-44
2024/02/01 11:26:39;;;;;;;19.55;6.63;;;;;;;3.12;96.03;98213.97;4999693;28;20042;-44
2024/02/01 11:29:08;;;;;;;18.55;7.75;;;;;;;2.75;95.31;98134.59;4956606;28;20053;-45
2024/02/01 11:31:35;;;;;;;23.33;8.40;;;;;;;2.98;95.20;98160.47;4996543;28;20237;-47
2024/02/01 11:34:05;;;;;;;17.85;6.55;;;;;;;2.99;95.27;98152.72;4995293;28;20049;-44
2024/02/01 11:36:35;;;;;;;19.02;6.97;;;;;;;3.26;94.61;98189.59;4966241;28;20129;-46
2024/02/01 11:39:02;;;;;;;;;;;;;;;3.27;94.33;98201.56;4993103;28;20481;-48
2024/02/01 11:41:30;;;;;;;14.77;5.97;;;;;;;3.16;93.44;98185.59;5001689;28;19917;-44
2024/02/01 11:43:58;;;;;;;12.55;4.88;;;;;;;3.00;93.65;98145.84;4994979;28;20049;-44
2024/02/01 11:46:25;;;;;;;14.45;6.72;;;;;;;3.23;93.63;98187.13;5002335;28;20038;-42
2024/02/01 11:48:51;;;;;;;10.40;4.57;;;;;;;3.18;92.86;98183.84;5002199;28;20053;-45
2024/02/01 11:51:17;;;;;;;11.27;4.60;;;;;;;3.15;92.76;98177.94;4971577;28;20065;-45
2024/02/01 11:53:44;;;;;;;16.10;5.10;;;;;;;2.92;92.83;98135.81;4987111;28;20100;-44
2024/02/01 11:56:10;;;;;;;17.17;6.47;;;;;;;3.14;92.27;98169.38;4996494;28;20134;-46
2024/02/01 11:58:36;;;;;;;19.30;6.20;;;;;;;3.16;92.43;98174.50;4987306;28;20034;-44
2024/02/01 12:01:02;;;;;;;19.95;6.57;;;;;;;3.16;92.10;98177.91;4988480;28;20042;-43
2024/02/01 12:03:32;;;;;;;13.73;6.30;;;;;;;3.20;92.00;98163.25;4970610;28;20042;-45
2024/02/01 12:06:02;;;;;;;14.00;5.60;;;;;;;3.22;92.16;98169.19;4989726;28;20056;-45
2024/02/01 12:08:28;;;;;;;13.20;6.10;;;;;;;3.05;91.95;98153.41;4967287;28;20038;-43
2024/02/01 12:10:55;;;;;;;18.20;6.45;;;;;;;3.24;91.86;98173.41;5003788;28;20593;-45
2024/02/01 12:13:22;;;;;;;16.13;6.90;;;;;;;3.19;91.31;98175.22;4998629;28;20046;-45
2024/02/01 12:15:52;;;;;;;16.65;6.40;;;;;;;3.20;91.57;98170.94;4992713;28;20074;-44
2024/02/01 12:18:18;;;;;;;16.15;6.40;;;;;;;3.18;91.22;98152.19;5007960;28;20092;-44
2024/02/01 12:20:47;;;;;;;15.77;5.50;;;;;;;3.20;91.08;98153.81;4990401;28;20042;-44
2024/02/01 12:23:14;;;;;;;15.57;6.43;;;;;;;3.18;90.67;98159.91;4990271;28;20132;-44
2024/02/01 12:25:47;;;;;;;9.43;4.28;;;;;;;2.96;89.97;98132.28;5004788;28;20808;-44